Search for airport 
image banner adimage banner adimage banner ad
image banner ad

CA37 - Dominican Santa Cruz Hospital

Located in Santa Cruz, United States

ICAO - CA37, IATA -

Data provided by Airmate  

General information

Coordinates: N36°59'26" W121°58'57"
Elevation is 118 feet MSL.
Magnetic variation is 13° East
View others Airports in California

Operational data

Special qualification required
Current time UTC:
Current local time:
Weather at : KWVI - Watsonville Muni ( 18 km )
METAR: KWVI 221419Z AUTO 00000KT 10SM SCT016 SCT028 16/13 A2994 RMK AO2 T01610128
View NOTAMs / SUP AIP / TFR affecting this airport [VIEW]
Communications frequencies: [VIEW]

Runways:

Airport contact information

Address: Santa Cruz United States

Satellite view of CA37